Time;durP1;ratioP1;P1;durP2;ratioP2;P2;SDS_P1;SDS_P2;PMS_P1;PMS_P2;Temp;Humidity;BMP_temperature;BMP_pressure;BME280_temperature;BME280_humidity;BME280_pressure;Samples;Min_cycle;Max_cycle;Signal;HPM_P1;HPM_P2
2021/12/01 00:00:17;;;;;;;9.45;1.90;;;;;;;9.86;100.00;100052.22;5032593;28;20033;-74
2021/12/01 00:02:43;;;;;;;13.40;2.15;;;;;;;9.84;100.00;100043.47;5032702;28;20021;-74
2021/12/01 00:05:10;;;;;;;16.38;2.35;;;;;;;9.85;100.00;100037.31;5029487;28;20443;-75
2021/12/01 00:07:36;;;;;;;15.18;1.92;;;;;;;9.85;100.00;100022.47;5030717;28;20504;-74
2021/12/01 00:10:08;;;;;;;17.35;2.58;;;;;;;9.87;100.00;100022.47;5032153;28;20029;-75
2021/12/01 00:12:34;;;;;;;19.63;2.38;;;;;;;9.87;100.00;100001.44;5027033;28;20037;-74
2021/12/01 00:15:00;;;;;;;20.90;2.58;;;;;;;9.87;100.00;99985.69;5028282;28;20086;-74
2021/12/01 00:17:26;;;;;;;13.52;2.13;;;;;;;9.87;100.00;99980.41;5036572;28;20037;-74
2021/12/01 00:19:53;;;;;;;17.85;2.28;;;;;;;9.88;100.00;99985.69;5035502;28;20017;-74
2021/12/01 00:22:18;;;;;;;22.67;2.70;;;;;;;9.91;100.00;99955.91;5035929;28;20053;-73
2021/12/01 00:24:44;;;;;;;11.43;2.28;;;;;;;9.92;100.00;99960.31;5031995;28;20069;-74
2021/12/01 00:27:10;;;;;;;13.88;1.80;;;;;;;9.96;100.00;99956.81;5030460;28;20041;-75
2021/12/01 00:29:37;;;;;;;16.05;2.53;;;;;;;10.04;100.00;99947.22;5029939;28;20083;-73
2021/12/01 00:32:04;;;;;;;18.95;2.67;;;;;;;10.04;100.00;99951.59;5024770;28;20042;-74
2021/12/01 00:34:32;;;;;;;14.68;1.83;;;;;;;10.07;100.00;99941.97;5025577;28;20370;-74
2021/12/01 00:36:58;;;;;;;17.40;2.08;;;;;;;10.08;100.00;99948.13;5031545;28;20036;-74
2021/12/01 00:39:23;;;;;;;8.95;2.60;;;;;;;10.12;100.00;99928.84;5036984;28;20486;-74
2021/12/01 00:41:50;;;;;;;11.90;1.92;;;;;;;10.11;100.00;99922.69;5029482;28;20083;-74
2021/12/01 00:44:17;;;;;;;11.90;2.00;;;;;;;10.11;100.00;99920.06;5029555;28;20044;-75
2021/12/01 00:46:54;;;;;;;9.90;1.90;;;;;;;10.09;100.00;99921.84;5028001;28;20045;-74
2021/12/01 00:49:21;;;;;;;7.28;1.80;;;;;;;10.15;100.00;99920.06;5035703;28;20477;-74
2021/12/01 00:51:47;;;;;;;9.02;1.27;;;;;;;10.11;100.00;99904.31;5037101;28;20527;-73
2021/12/01 00:54:12;;;;;;;9.15;1.75;;;;;;;10.09;100.00;99913.94;5034572;28;20026;-73
2021/12/01 00:56:39;;;;;;;12.32;1.80;;;;;;;10.05;100.00;99896.41;5035417;28;20049;-74
2021/12/01 00:59:06;;;;;;;4.13;1.48;;;;;;;10.05;100.00;99911.28;5033088;28;20080;-73
2021/12/01 01:01:31;;;;;;;7.82;1.35;;;;;;;10.06;100.00;99878.88;5029935;28;20472;-74
2021/12/01 01:03:58;;;;;;;6.43;1.38;;;;;;;10.03;100.00;99882.38;5038238;28;20113;-75
2021/12/01 01:06:23;;;;;;;8.15;1.52;;;;;;;10.10;100.00;99868.38;5037820;28;20025;-74
2021/12/01 01:08:49;;;;;;;9.02;1.65;;;;;;;10.11;100.00;99874.53;5033613;28;20025;-75
2021/12/01 01:16:45;;;;;;;11.57;2.33;;;;;;;10.22;100.00;99853.50;5031001;28;20072;-74
2021/12/01 01:19:14;;;;;;;11.85;2.00;;;;;;;10.23;100.00;99831.63;5034637;28;20108;-74
2021/12/01 01:21:44;;;;;;;8.32;1.80;;;;;;;10.25;100.00;99822.81;5032950;28;20033;-76
2021/12/01 01:24:10;;;;;;;4.80;1.15;;;;;;;10.29;100.00;99822.00;5034707;28;20049;-75
2021/12/01 01:26:37;;;;;;;12.50;2.30;;;;;;;10.34;100.00;99805.34;5039634;28;20044;-75
2021/12/01 01:29:04;;;;;;;8.88;2.22;;;;;;;10.32;100.00;99802.69;5033537;28;20042;-75
2021/12/01 01:31:30;;;;;;;24.05;2.67;;;;;;;10.38;100.00;99810.63;5033962;28;20032;-74
2021/12/01 01:33:57;;;;;;;10.35;1.80;;;;;;;10.37;100.00;99795.72;5034889;28;20856;-75
2021/12/01 01:36:25;;;;;;;16.02;2.33;;;;;;;10.35;100.00;99778.19;5034393;28;20064;-74
2021/12/01 01:38:50;;;;;;;20.20;2.17;;;;;;;10.30;100.00;99781.66;5034686;28;20084;-75
2021/12/01 01:41:17;;;;;;;20.90;2.28;;;;;;;10.33;100.00;99772.88;5033619;28;20065;-75
2021/12/01 01:43:44;;;;;;;15.55;2.78;;;;;;;10.36;100.00;99764.16;5039783;28;20037;-74
2021/12/01 01:46:10;;;;;;;10.15;1.67;;;;;;;10.35;100.00;99760.66;5035102;28;20040;-73
2021/12/01 01:48:46;;;;;;;24.13;2.55;;;;;;;10.44;100.00;99749.25;5033570;28;20045;-75
2021/12/01 01:51:12;;;;;;;14.13;1.88;;;;;;;10.44;100.00;99744.88;5036401;28;20025;-75
2021/12/01 01:53:38;;;;;;;11.45;1.85;;;;;;;10.46;100.00;99740.47;5031618;28;20025;-75
2021/12/01 01:56:05;;;;;;;8.43;1.27;;;;;;;10.51;100.00;99721.19;5034045;28;20037;-75
2021/12/01 01:58:31;;;;;;;18.25;1.95;;;;;;;10.56;100.00;99720.31;5038918;28;20060;-75
2021/12/01 02:01:06;;;;;;;11.10;2.30;;;;;;;10.52;100.00;99720.31;5032716;28;20038;-75
2021/12/01 02:03:34;;;;;;;8.43;1.17;;;;;;;10.51;100.00;99710.66;5027947;28;20025;-74
2021/12/01 02:06:00;;;;;;;9.00;1.35;;;;;;;10.48;100.00;99689.66;5032837;28;20029;-74
2021/12/01 02:08:31;;;;;;;12.20;1.80;;;;;;;10.47;100.00;99662.44;5032212;28;20043;-73
2021/12/01 02:10:59;;;;;;;7.13;1.30;;;;;;;10.50;100.00;99706.28;5025206;28;20034;-75
2021/12/01 02:13:26;;;;;;;9.85;1.25;;;;;;;10.54;100.00;99692.25;5032386;28;20026;-75
2021/12/01 02:15:53;;;;;;;7.72;1.20;;;;;;;10.53;100.00;99695.78;5033038;28;20033;-76
2021/12/01 02:18:20;;;;;;;4.30;1.20;;;;;;;10.41;100.00;99663.34;5030618;28;20029;-76
2021/12/01 02:21:11;;;;;;;8.15;1.67;;;;;;;10.41;100.00;99668.59;5026060;28;20432;-75
2021/12/01 02:23:44;;;;;;;8.18;1.40;;;;;;;10.41;100.00;99652.81;5037251;28;20529;-75
2021/12/01 02:26:11;;;;;;;6.37;1.40;;;;;;;10.36;100.00;99638.81;5036689;28;20118;-75
2021/12/01 02:28:39;;;;;;;8.75;2.25;;;;;;;10.39;100.00;99633.56;5029990;28;20879;-75
2021/12/01 02:31:05;;;;;;;7.20;1.30;;;;;;;10.35;100.00;99647.59;5031388;28;20084;-75
2021/12/01 02:33:31;;;;;;;2.85;1.02;;;;;;;10.36;100.00;99633.53;5036557;28;20029;-74
2021/12/01 02:35:56;;;;;;;8.90;1.00;;;;;;;10.37;100.00;99640.56;5030831;28;20104;-74
2021/12/01 02:38:23;;;;;;;6.18;1.27;;;;;;;10.41;100.00;99616.00;5031647;28;20086;-74
2021/12/01 02:40:49;;;;;;;5.45;1.27;;;;;;;10.37;100.00;99610.78;5034328;28;20445;-73
2021/12/01 02:43:15;;;;;;;5.60;1.05;;;;;;;10.32;100.00;99601.97;5035343;28;20056;-74
2021/12/01 02:45:41;;;;;;;4.32;1.25;;;;;;;10.24;100.00;99596.72;5038844;28;20130;-73
2021/12/01 02:48:11;;;;;;;4.55;1.15;;;;;;;10.17;100.00;99602.88;5037972;28;20060;-74
2021/12/01 02:50:37;;;;;;;8.50;1.58;;;;;;;10.00;100.00;99602.91;5033955;28;20092;-76
2021/12/01 02:53:02;;;;;;;2.25;1.40;;;;;;;9.87;100.00;99589.78;5038733;28;20026;-74
2021/12/01 02:55:29;;;;;;;5.47;1.90;;;;;;;9.77;100.00;99599.41;5032286;28;20107;-74
2021/12/01 02:57:55;;;;;;;6.78;1.77;;;;;;;9.63;100.00;99582.81;5029515;28;20051;-75
2021/12/01 03:00:23;;;;;;;7.72;2.10;;;;;;;9.56;100.00;99586.28;5030396;28;20037;-75
2021/12/01 03:02:50;;;;;;;3.05;2.10;;;;;;;9.50;100.00;99560.91;5031009;28;20030;-75
2021/12/01 03:05:17;;;;;;;6.03;2.47;;;;;;;9.47;100.00;99554.78;5032527;28;20087;-76
2021/12/01 03:07:43;;;;;;;7.50;2.40;;;;;;;9.42;100.00;99542.50;5031303;28;20033;-75
2021/12/01 03:10:10;;;;;;;4.20;2.67;;;;;;;9.38;100.00;99522.38;5032115;28;20064;-75
2021/12/01 03:12:39;;;;;;;6.35;2.60;;;;;;;9.32;100.00;99524.13;5031204;28;20042;-75
2021/12/01 03:15:07;;;;;;;4.28;3.28;;;;;;;9.32;100.00;99518.88;5028188;28;20497;-75
2021/12/01 03:17:35;;;;;;;4.35;2.65;;;;;;;9.33;100.00;99494.41;5030360;28;20543;-74
2021/12/01 03:20:02;;;;;;;4.43;2.70;;;;;;;9.32;100.00;99495.25;5032210;28;20492;-74
2021/12/01 03:22:27;;;;;;;3.22;2.92;;;;;;;9.29;100.00;99477.75;5037798;28;20035;-74
2021/12/01 03:24:54;;;;;;;4.90;3.50;;;;;;;9.27;100.00;99500.53;5029981;28;20053;-74
2021/12/01 03:27:20;;;;;;;8.80;3.83;;;;;;;9.23;100.00;99488.28;5028591;28;20056;-74
2021/12/01 03:29:49;;;;;;;4.25;3.70;;;;;;;9.21;100.00;99466.38;5030933;28;20443;-74
2021/12/01 03:32:15;;;;;;;4.45;4.05;;;;;;;9.15;100.00;99454.16;5030873;28;20509;-73
2021/12/01 03:34:42;;;;;;;9.80;5.25;;;;;;;9.11;100.00;99453.28;5029934;28;20025;-73
2021/12/01 03:37:08;;;;;;;8.45;5.60;;;;;;;9.07;100.00;99434.91;5027958;28;20040;-74
2021/12/01 03:39:33;;;;;;;7.78;4.82;;;;;;;9.05;100.00;99442.78;5031526;28;20032;-74
2021/12/01 03:41:59;;;;;;;7.93;5.28;;;;;;;8.99;100.00;99434.03;5030795;28;20033;-74
2021/12/01 03:44:24;;;;;;;6.95;5.18;;;;;;;8.98;100.00;99422.69;5030175;28;20029;-74
2021/12/01 03:46:51;;;;;;;10.93;4.47;;;;;;;8.93;100.00;99425.28;5030174;28;20033;-74
2021/12/01 03:49:16;;;;;;;7.05;4.78;;;;;;;8.89;100.00;99410.41;5028339;28;20037;-73
2021/12/01 03:51:41;;;;;;;4.95;3.83;;;;;;;8.86;100.00;99410.41;5030545;28;20029;-74
2021/12/01 03:54:07;;;;;;;6.45;3.80;;;;;;;8.84;100.00;99398.19;5033624;28;20029;-75
2021/12/01 03:56:33;;;;;;;6.20;4.32;;;;;;;8.78;100.00;99407.78;5028218;28;20029;-74
2021/12/01 03:59:00;;;;;;;8.32;4.30;;;;;;;8.78;100.00;99391.19;5030703;28;20017;-74
2021/12/01 04:01:26;;;;;;;8.55;4.53;;;;;;;8.77;100.00;99397.31;5027035;28;20182;-74
2021/12/01 04:03:51;;;;;;;8.07;5.15;;;;;;;8.72;100.00;99380.69;5031142;28;20109;-74
2021/12/01 04:06:17;;;;;;;6.65;5.15;;;;;;;8.70;100.00;99374.56;5029417;28;20052;-76
2021/12/01 04:08:42;;;;;;;7.32;6.20;;;;;;;8.66;100.00;99368.44;5037394;28;20037;-74
2021/12/01 04:11:09;;;;;;;5.28;4.72;;;;;;;8.64;100.00;99361.44;5027277;28;20148;-73
2021/12/01 04:13:34;;;;;;;8.40;5.60;;;;;;;8.66;100.00;99373.69;5028707;28;20033;-74
2021/12/01 04:15:59;;;;;;;6.78;6.07;;;;;;;8.67;100.00;99338.75;5031339;28;20460;-73
2021/12/01 04:18:25;;;;;;;9.02;5.60;;;;;;;8.62;100.00;99343.09;5030885;28;20388;-75
2021/12/01 04:20:50;;;;;;;7.72;5.78;;;;;;;8.60;100.00;99339.63;5029475;28;20397;-74
2021/12/01 04:23:16;;;;;;;10.02;6.60;;;;;;;8.60;100.00;99348.34;5029920;28;20018;-74
2021/12/01 04:25:42;;;;;;;7.90;5.75;;;;;;;8.63;100.00;99321.25;5016001;28;20049;-74
2021/12/01 04:28:07;;;;;;;12.25;5.63;;;;;;;8.62;100.00;99316.88;5034199;28;20430;-74
2021/12/01 04:30:33;;;;;;;10.43;5.50;;;;;;;8.59;100.00;99317.75;5039805;28;20034;-74
2021/12/01 04:32:59;;;;;;;8.02;5.78;;;;;;;8.58;100.00;99309.88;5033042;28;20033;-74
2021/12/01 04:35:27;;;;;;;10.18;6.07;;;;;;;8.60;100.00;99298.53;5033905;28;20032;-74
2021/12/01 04:37:53;;;;;;;9.13;6.15;;;;;;;8.58;100.00;99294.16;5036415;28;20025;-75
2021/12/01 04:40:19;;;;;;;6.40;5.70;;;;;;;8.59;100.00;99259.22;5035913;28;20029;-74
2021/12/01 04:42:45;;;;;;;7.85;5.63;;;;;;;8.58;100.00;99281.91;5039075;28;20491;-74
2021/12/01 04:45:14;;;;;;;5.47;4.60;;;;;;;8.63;100.00;99281.94;5035407;28;20062;-74
2021/12/01 04:47:44;;;;;;;6.78;5.15;;;;;;;8.67;100.00;99282.78;5034978;28;20088;-75
2021/12/01 04:50:12;;;;;;;10.50;4.72;;;;;;;8.70;100.00;99293.28;5038228;28;20469;-74
2021/12/01 04:52:37;;;;;;;6.13;5.53;;;;;;;8.70;100.00;99278.41;5040375;28;20032;-74
2021/12/01 04:55:04;;;;;;;6.15;5.22;;;;;;;8.68;100.00;99272.31;5036981;28;20084;-75
2021/12/01 04:57:30;;;;;;;7.03;5.97;;;;;;;8.64;100.00;99267.06;5035502;28;20469;-73
2021/12/01 04:59:55;;;;;;;7.88;6.05;;;;;;;8.66;100.00;99274.03;5037085;28;20119;-72
2021/12/01 05:02:21;;;;;;;7.88;5.90;;;;;;;8.67;100.00;99243.44;5035008;28;20388;-74
2021/12/01 05:04:46;;;;;;;7.82;5.90;;;;;;;8.65;100.00;99242.59;5032410;28;20033;-74
2021/12/01 05:07:13;;;;;;;10.05;6.47;;;;;;;8.64;100.00;99230.34;5034693;28;20029;-73
2021/12/01 05:09:39;;;;;;;7.78;6.40;;;;;;;8.62;100.00;99242.59;5035974;28;20033;-74
2021/12/01 05:12:07;;;;;;;7.00;6.05;;;;;;;8.63;100.00;99223.34;5037694;28;20099;-74
2021/12/01 05:14:34;;;;;;;8.52;5.65;;;;;;;8.62;100.00;99222.50;5036115;28;20026;-74
2021/12/01 05:16:59;;;;;;;8.38;5.88;;;;;;;8.64;100.00;99219.84;5035154;28;20033;-74
2021/12/01 05:19:25;;;;;;;7.85;6.32;;;;;;;8.63;100.00;99219.00;5036291;28;20121;-75
2021/12/01 05:21:50;;;;;;;9.30;6.28;;;;;;;8.63;100.00;99228.59;5036213;28;20049;-75
2021/12/01 05:24:15;;;;;;;7.32;5.50;;;;;;;8.64;100.00;99215.50;5039870;28;20432;-75
2021/12/01 05:26:41;;;;;;;6.90;5.75;;;;;;;8.67;100.00;99210.25;5040710;28;20009;-74
2021/12/01 05:29:06;;;;;;;11.13;5.15;;;;;;;8.68;100.00;99201.50;5034575;28;20083;-74
2021/12/01 05:31:32;;;;;;;5.70;4.30;;;;;;;8.68;100.00;99213.72;5037326;28;20079;-75
2021/12/01 05:33:57;;;;;;;5.85;3.88;;;;;;;8.65;100.00;99217.22;5036559;28;20033;-74
2021/12/01 05:36:23;;;;;;;7.40;4.05;;;;;;;8.61;100.00;99220.72;5036010;28;20040;-75
2021/12/01 05:38:48;;;;;;;6.82;3.67;;;;;;;8.63;100.00;99208.50;5039626;28;20025;-75
2021/12/01 05:41:13;;;;;;;4.18;2.83;;;;;;;8.63;100.00;99207.63;5032335;28;20045;-74
2021/12/01 05:43:39;;;;;;;5.75;3.17;;;;;;;8.64;100.00;99201.50;5033182;28;20075;-74
2021/12/01 05:46:04;;;;;;;4.45;2.50;;;;;;;8.66;100.00;99205.00;5030666;28;20037;-74
2021/12/01 05:48:30;;;;;;;5.03;1.98;;;;;;;8.73;100.00;99194.47;5030179;28;20090;-75
2021/12/01 05:50:56;;;;;;;2.55;2.00;;;;;;;8.80;100.00;99190.09;5033558;28;20113;-75
2021/12/01 05:53:21;;;;;;;2.40;2.13;;;;;;;8.80;100.00;99189.22;5034191;28;20033;-75
2021/12/01 05:55:47;;;;;;;3.60;1.90;;;;;;;8.82;100.00;99183.09;5030129;28;20057;-75
2021/12/01 05:58:12;;;;;;;4.70;1.95;;;;;;;8.84;100.00;99217.19;5029879;28;20068;-74
2021/12/01 06:00:41;;;;;;;4.18;2.30;;;;;;;8.79;100.00;99175.25;5031361;28;20133;-73
2021/12/01 06:03:06;;;;;;;3.88;2.35;;;;;;;8.82;100.00;99167.38;5032806;28;20049;-74
2021/12/01 06:05:32;;;;;;;5.75;2.40;;;;;;;8.87;100.00;99169.97;5029379;28;20496;-74
2021/12/01 06:07:57;;;;;;;7.47;2.42;;;;;;;8.84;100.00;99160.34;5034910;28;20022;-74
2021/12/01 06:10:22;;;;;;;2.70;2.40;;;;;;;8.85;100.00;99159.47;5031847;28;20025;-74
2021/12/01 06:12:48;;;;;;;4.72;2.55;;;;;;;8.87;100.00;99148.97;5033384;28;20042;-74
2021/12/01 06:15:16;;;;;;;7.88;2.80;;;;;;;8.90;100.00;99149.84;5032260;28;20029;-74
2021/12/01 06:17:42;;;;;;;7.43;2.53;;;;;;;8.89;100.00;99142.00;5034234;28;20152;-75
2021/12/01 06:20:09;;;;;;;4.68;2.40;;;;;;;8.88;100.00;99140.25;5033889;28;20124;-75
2021/12/01 06:22:35;;;;;;;3.88;1.98;;;;;;;8.83;100.00;99142.91;5030322;28;20057;-76
2021/12/01 06:25:02;;;;;;;9.35;3.30;;;;;;;8.81;100.00;99151.66;5033035;28;20452;-76
2021/12/01 06:27:28;;;;;;;8.52;3.83;;;;;;;8.75;100.00;99142.06;5019359;28;20037;-75
2021/12/01 06:29:54;;;;;;;4.93;2.72;;;;;;;8.73;100.00;99130.69;5030566;28;20037;-75
2021/12/01 06:32:20;;;;;;;9.55;3.45;;;;;;;8.74;100.00;99146.41;5031083;28;20025;-76
2021/12/01 06:34:46;;;;;;;6.35;3.17;;;;;;;8.77;100.00;99135.03;5026796;28;20029;-74
2021/12/01 06:37:13;;;;;;;4.40;2.83;;;;;;;8.76;100.00;99141.16;5024907;28;20025;-75
2021/12/01 06:39:38;;;;;;;4.55;3.20;;;;;;;8.76;100.00;99126.31;5030022;28;20021;-75
2021/12/01 06:42:29;;;;;;;6.15;2.53;;;;;;;8.76;100.00;99115.81;5030341;28;20033;-77
2021/12/01 06:44:54;;;;;;;6.35;2.30;;;;;;;8.74;100.00;99120.19;5034790;28;20039;-75
2021/12/01 06:47:25;;;;;;;13.38;2.78;;;;;;;8.73;100.00;99100.06;5024521;28;20124;-75
2021/12/01 06:49:51;;;;;;;12.52;2.60;;;;;;;8.71;100.00;99101.84;5034884;28;20033;-76
2021/12/01 06:52:16;;;;;;;11.00;2.85;;;;;;;8.74;100.00;99104.44;5035129;28;20038;-75
2021/12/01 06:54:42;;;;;;;11.38;2.85;;;;;;;8.72;100.00;99106.22;5031347;28;20025;-76
2021/12/01 06:57:08;;;;;;;8.68;2.80;;;;;;;8.75;100.00;99092.22;5033799;28;20433;-75
2021/12/01 06:59:33;;;;;;;7.03;2.67;;;;;;;8.76;100.00;99089.59;5033691;28;20100;-74
2021/12/01 07:01:59;;;;;;;9.10;2.60;;;;;;;8.80;100.00;99100.06;5034293;28;20504;-73
2021/12/01 07:04:24;;;;;;;11.60;2.92;;;;;;;8.81;100.00;99094.81;5027643;28;20469;-72
2021/12/01 07:06:50;;;;;;;10.00;2.90;;;;;;;8.81;100.00;99086.06;5028707;28;20128;-73
2021/12/01 07:09:19;;;;;;;6.78;3.00;;;;;;;8.85;100.00;99088.66;5036152;28;21793;-76
2021/12/01 07:11:46;;;;;;;9.20;2.97;;;;;;;8.83;100.00;99069.47;5035092;28;20186;-74
2021/12/01 07:14:11;;;;;;;14.05;3.25;;;;;;;8.86;100.00;99065.94;5027905;28;20026;-75
2021/12/01 07:16:36;;;;;;;17.27;3.47;;;;;;;8.86;100.00;99074.69;5033614;28;20033;-75
2021/12/01 07:19:03;;;;;;;17.50;3.42;;;;;;;8.88;100.00;99066.81;5033217;28;20022;-75
2021/12/01 07:21:28;;;;;;;13.30;3.08;;;;;;;8.87;100.00;99059.81;5033620;28;20075;-75
2021/12/01 07:23:54;;;;;;;13.18;3.10;;;;;;;8.87;100.00;99059.81;5025992;28;20022;-76
2021/12/01 07:26:19;;;;;;;9.30;2.95;;;;;;;8.89;100.00;99064.16;5028470;28;20563;-75
2021/12/01 07:28:44;;;;;;;13.05;2.95;;;;;;;8.90;100.00;99060.66;5027273;28;20033;-75
2021/12/01 07:31:10;;;;;;;12.30;2.70;;;;;;;8.84;100.00;99096.53;5027755;28;20037;-75
2021/12/01 07:33:35;;;;;;;14.68;2.60;;;;;;;8.84;100.00;99099.16;5024823;28;20040;-74
2021/12/01 07:36:01;;;;;;;12.25;2.85;;;;;;;8.82;100.00;99083.44;5026921;28;20070;-73
2021/12/01 07:38:26;;;;;;;10.27;2.35;;;;;;;8.84;100.00;99070.31;5034690;28;20017;-73
2021/12/01 07:40:52;;;;;;;18.55;4.28;;;;;;;8.80;100.00;99079.94;5025398;28;20052;-74
2021/12/01 07:43:17;;;;;;;18.90;3.13;;;;;;;8.79;100.00;99093.97;5028567;28;20413;-74
2021/12/01 07:45:44;;;;;;;21.67;3.10;;;;;;;8.77;100.00;99109.66;5030916;28;20041;-74
2021/12/01 07:48:12;;;;;;;19.65;2.65;;;;;;;8.67;100.00;99112.34;5023078;28;20044;-74
2021/12/01 07:50:37;;;;;;;12.27;1.80;;;;;;;8.52;100.00;99106.28;5030794;28;20037;-73
2021/12/01 07:53:03;;;;;;;20.00;2.58;;;;;;;8.43;100.00;99090.56;5025514;28;20072;-74
2021/12/01 07:55:28;;;;;;;13.88;2.00;;;;;;;8.48;100.00;99099.31;5033111;28;20032;-73
2021/12/01 07:57:53;;;;;;;13.80;1.60;;;;;;;8.49;100.00;99073.97;5029344;28;20370;-72
2021/12/01 08:00:19;;;;;;;13.65;1.73;;;;;;;8.52;100.00;99089.66;5024770;28;20358;-75
2021/12/01 08:02:45;;;;;;;8.75;1.10;;;;;;;8.68;98.19;99065.16;5029191;28;20034;-76
2021/12/01 08:05:11;;;;;;;10.50;1.23;;;;;;;8.76;97.07;99052.88;5026927;28;20052;-76
2021/12/01 08:07:38;;;;;;;12.93;2.08;;;;;;;8.83;96.81;99063.31;5033326;28;20116;-79
2021/12/01 08:10:06;;;;;;;11.38;2.42;;;;;;;8.81;97.60;99091.31;5031833;28;20040;-77
2021/12/01 08:12:33;;;;;;;25.50;3.75;;;;;;;8.74;99.66;99104.44;5028521;28;20087;-80
2021/12/01 08:14:59;;;;;;;15.48;1.75;;;;;;;8.59;100.00;99108.00;5026233;28;20033;-77
2021/12/01 08:17:25;;;;;;;17.02;2.30;;;;;;;8.44;100.00;99121.13;5027477;28;20095;-78
2021/12/01 08:19:50;;;;;;;10.77;1.40;;;;;;;8.31;100.00;99128.13;5030857;28;20107;-78
2021/12/01 08:22:15;;;;;;;8.07;1.35;;;;;;;8.22;100.00;99143.88;5027459;28;20029;-77
2021/12/01 08:24:41;;;;;;;11.60;1.52;;;;;;;8.21;100.00;99131.66;5028213;28;20041;-77
2021/12/01 08:27:07;;;;;;;11.13;1.65;;;;;;;8.22;100.00;99138.63;5032596;28;20028;-77
2021/12/01 08:29:32;;;;;;;8.20;1.55;;;;;;;8.23;100.00;99135.16;5021473;28;20040;-77
2021/12/01 08:31:59;;;;;;;14.27;1.23;;;;;;;8.21;100.00;99129.06;5028595;28;20044;-77
2021/12/01 08:34:24;;;;;;;8.85;1.55;;;;;;;8.26;100.00;99119.41;5036192;28;20028;-77
2021/12/01 08:36:50;;;;;;;6.35;1.17;;;;;;;8.29;100.00;99116.81;5040781;28;20404;-77
2021/12/01 08:39:15;;;;;;;14.65;2.00;;;;;;;8.29;100.00;99114.19;5031477;28;20029;-78
2021/12/01 08:41:40;;;;;;;18.02;2.03;;;;;;;8.30;100.00;99122.91;5018953;28;20025;-76
2021/12/01 08:44:07;;;;;;;10.90;1.67;;;;;;;8.36;100.00;99126.38;5041117;28;21121;-76
2021/12/01 08:46:32;;;;;;;7.03;1.00;;;;;;;8.38;100.00;99131.63;5037022;28;20056;-76
2021/12/01 08:48:59;;;;;;;6.07;2.47;;;;;;;8.42;100.00;99144.72;5037708;28;20056;-76
2021/12/01 08:51:26;;;;;;;10.13;1.60;;;;;;;8.43;100.00;99159.56;5035771;28;20048;-78
2021/12/01 08:53:52;;;;;;;11.18;1.05;;;;;;;8.30;100.00;99151.72;5036181;28;20113;-77
2021/12/01 08:56:18;;;;;;;6.80;0.90;;;;;;;8.17;100.00;99159.63;5037309;28;20417;-77
2021/12/01 08:58:44;;;;;;;6.45;1.30;;;;;;;8.12;100.00;99160.50;5038036;28;20029;-77
2021/12/01 09:01:09;;;;;;;8.90;1.40;;;;;;;8.14;100.00;99166.59;5036026;28;20040;-78
2021/12/01 09:03:36;;;;;;;12.45;1.30;;;;;;;8.18;100.00;99170.94;5030061;28;20423;-77
2021/12/01 09:06:03;;;;;;;16.08;1.77;;;;;;;8.20;100.00;99182.31;5040572;28;20022;-76
2021/12/01 09:08:28;;;;;;;12.23;1.65;;;;;;;8.20;100.00;99183.19;5027441;28;20029;-78
2021/12/01 09:10:56;;;;;;;9.50;1.20;;;;;;;8.25;100.00;99167.47;5027614;28;20143;-77
2021/12/01 09:13:26;;;;;;;9.93;1.58;;;;;;;8.31;100.00;99170.06;5036426;28;20049;-77
2021/12/01 09:15:53;;;;;;;17.88;1.83;;;;;;;8.28;100.00;99178.81;5035070;28;20077;-78
2021/12/01 09:18:20;;;;;;;10.85;1.30;;;;;;;8.11;100.00;99212.00;5041334;28;20029;-78
2021/12/01 09:20:46;;;;;;;9.90;1.48;;;;;;;7.93;100.00;99212.88;5038788;28;20025;-79
2021/12/01 09:23:12;;;;;;;15.18;2.28;;;;;;;7.72;100.00;99204.13;5035921;28;20124;-79
2021/12/01 09:25:37;;;;;;;5.88;0.95;;;;;;;7.56;100.00;99212.81;5035093;28;20111;-79
2021/12/01 09:28:03;;;;;;;13.85;2.30;;;;;;;7.47;100.00;99205.81;5042310;28;20029;-77
2021/12/01 09:30:29;;;;;;;10.70;1.45;;;;;;;7.47;100.00;99205.81;5041070;28;20034;-79
2021/12/01 09:32:54;;;;;;;15.45;1.77;;;;;;;7.46;100.00;99209.31;5043511;28;20086;-77
2021/12/01 09:35:20;;;;;;;14.57;2.08;;;;;;;7.50;100.00;99207.56;5043976;28;20080;-77
2021/12/01 09:37:46;;;;;;;12.63;1.80;;;;;;;7.54;100.00;99211.94;5030397;28;20548;-77
2021/12/01 09:40:17;;;;;;;11.07;1.83;;;;;;;7.60;100.00;99206.72;5036403;28;20064;-79
2021/12/01 09:42:44;;;;;;;14.13;2.38;;;;;;;7.69;100.00;99209.38;5034833;28;20033;-76
2021/12/01 09:45:11;;;;;;;13.77;1.90;;;;;;;7.73;100.00;99211.13;5020766;28;20040;-78
2021/12/01 09:47:37;;;;;;;11.40;1.63;;;;;;;7.75;100.00;99204.13;5036469;28;20420;-77
2021/12/01 09:50:06;;;;;;;8.82;1.35;;;;;;;7.75;100.00;99217.22;5039057;28;20175;-77
2021/12/01 09:52:32;;;;;;;14.35;1.67;;;;;;;7.74;100.00;99231.16;5047117;28;20033;-77
2021/12/01 09:54:58;;;;;;;10.88;2.05;;;;;;;7.66;100.00;99230.28;5033577;28;20025;-78
2021/12/01 09:57:24;;;;;;;15.32;1.85;;;;;;;7.66;100.00;99227.66;5040278;28;20025;-78
2021/12/01 09:59:49;;;;;;;13.60;1.65;;;;;;;7.60;100.00;99227.66;5041265;28;20032;-77
2021/12/01 10:02:16;;;;;;;12.15;1.95;;;;;;;7.59;100.00;99231.16;5043787;28;20037;-77
2021/12/01 10:04:42;;;;;;;13.23;1.55;;;;;;;7.55;100.00;99234.63;5034033;28;20367;-77
2021/12/01 10:07:20;;;;;;;12.93;3.08;;;;;;;7.51;100.00;99228.50;5029853;28;20056;-77
2021/12/01 10:09:50;;;;;;;17.67;2.63;;;;;;;7.53;100.00;99231.16;5031707;28;20469;-78
2021/12/01 10:12:16;;;;;;;9.52;1.67;;;;;;;7.55;100.00;99222.41;5031862;28;20528;-78
2021/12/01 10:14:51;;;;;;;12.32;1.75;;;;;;;7.61;100.00;99224.19;5034855;28;20100;-77
2021/12/01 10:17:32;;;;;;;11.13;2.42;;;;;;;7.67;100.00;99218.94;5038108;28;20029;-79
2021/12/01 10:20:15;;;;;;;8.10;2.58;;;;;;;7.69;100.00;99211.97;5035808;28;20038;-77
2021/12/01 10:23:15;;;;;;;22.30;2.42;;;;;;;7.72;100.00;99206.75;5021454;28;20124;-77
2021/12/01 10:25:42;;;;;;;19.10;3.55;;;;;;;7.76;100.00;99212.88;5040266;28;20506;-78
2021/12/01 10:28:13;;;;;;;14.18;2.35;;;;;;;7.80;100.00;99208.50;5030116;28;20103;-78
2021/12/01 10:30:44;;;;;;;12.20;1.67;;;;;;;7.86;100.00;99203.28;5034296;28;20104;-78
2021/12/01 10:33:16;;;;;;;16.05;2.95;;;;;;;7.96;100.00;99196.28;5028853;28;20038;-78
2021/12/01 10:35:42;;;;;;;11.23;1.63;;;;;;;7.98;100.00;99198.03;5021657;28;20026;-77
2021/12/01 10:38:10;;;;;;;14.07;1.77;;;;;;;8.07;100.00;99192.81;5028248;28;20417;-77
2021/12/01 10:40:36;;;;;;;19.60;2.33;;;;;;;8.06;100.00;99201.53;5029496;28;20043;-78
2021/12/01 10:43:14;;;;;;;12.88;1.90;;;;;;;8.08;100.00;99206.78;5029197;28;20034;-78
2021/12/01 10:45:47;;;;;;;11.85;1.98;;;;;;;8.09;100.00;99192.81;5030131;28;20046;-77
2021/12/01 10:48:26;;;;;;;7.72;1.58;;;;;;;8.17;100.00;99211.16;5041003;28;20034;-77
2021/12/01 10:50:52;;;;;;;11.73;1.60;;;;;;;8.20;100.00;99200.66;5025251;28;20024;-78
2021/12/01 10:53:22;;;;;;;4.53;1.30;;;;;;;8.17;100.00;99192.81;5022312;28;20109;-77
2021/12/01 10:56:08;;;;;;;11.68;1.55;;;;;;;8.22;97.88;99185.78;5027428;28;20025;-76
2021/12/01 10:58:39;;;;;;;10.25;1.52;;;;;;;8.23;97.82;99187.56;5025190;28;20029;-77
2021/12/01 11:01:18;;;;;;;7.20;1.42;;;;;;;8.27;98.16;99194.53;5027069;28;20048;-77
2021/12/01 11:03:45;;;;;;;14.05;2.00;;;;;;;8.26;97.87;99203.25;5022910;28;20044;-76
2021/12/01 11:06:22;;;;;;;9.13;1.52;;;;;;;8.33;96.91;99198.88;5025083;28;20715;-76
2021/12/01 11:08:57;;;;;;;6.28;1.00;;;;;;;8.36;96.15;99191.91;5026533;28;20132;-76
2021/12/01 11:11:38;;;;;;;18.02;1.83;;;;;;;8.43;95.32;99195.41;5037804;28;20029;-76
2021/12/01 11:14:16;;;;;;;7.78;1.30;;;;;;;8.47;94.64;99196.31;5027279;28;20057;-76
2021/12/01 11:16:42;;;;;;;12.52;1.70;;;;;;;8.50;94.31;99191.06;5024270;28;20083;-77
2021/12/01 11:19:09;;;;;;;8.15;0.90;;;;;;;8.51;95.04;99192.81;5024918;28;20169;-76
2021/12/01 11:21:35;;;;;;;16.20;1.55;;;;;;;8.49;93.95;99200.69;5029595;28;20029;-76
2021/12/01 11:24:06;;;;;;;9.00;1.48;;;;;;;8.55;93.84;99189.31;5027979;28;20539;-76
2021/12/01 11:26:33;;;;;;;6.63;1.00;;;;;;;8.58;92.31;99194.53;5030782;28;20445;-76
2021/12/01 11:29:00;;;;;;;9.80;1.40;;;;;;;8.58;92.98;99189.28;5028769;28;20018;-77
2021/12/01 11:31:34;;;;;;;10.88;1.70;;;;;;;8.59;93.10;99191.03;5025506;28;20049;-77
2021/12/01 11:34:06;;;;;;;7.75;1.15;;;;;;;8.65;91.40;99196.25;5028873;28;20026;-76